createdAt,value
2018-03-04T00:00:19.245Z,11.5
2018-03-04T00:02:18.995Z,11.2
2018-03-04T00:04:18.737Z,9.8
2018-03-04T00:06:18.729Z,9.1
2018-03-04T00:08:18.451Z,11.6
2018-03-04T00:10:18.600Z,11.5
2018-03-04T00:12:19.340Z,10
2018-03-04T00:14:19.069Z,11.2
2018-03-04T00:16:18.512Z,12.8
2018-03-04T00:18:19.305Z,11.5
2018-03-04T00:20:19.082Z,10.4
2018-03-04T00:22:18.805Z,11
2018-03-04T00:24:18.538Z,11.5
2018-03-04T00:26:19.012Z,11.9
2018-03-04T00:28:18.755Z,13.3
2018-03-04T00:30:18.516Z,12.3
2018-03-04T00:32:19.260Z,11.2
2018-03-04T00:34:18.990Z,10.8
2018-03-04T00:36:18.976Z,10.9
2018-03-04T00:38:18.704Z,11.6
2018-03-04T00:40:18.841Z,12.6
2018-03-04T00:42:18.570Z,12.5
2018-03-04T00:44:19.304Z,11.2
2018-03-04T00:46:18.762Z,8.7
2018-03-04T00:48:18.500Z,10
2018-03-04T00:50:19.262Z,11.7
2018-03-04T00:52:18.988Z,11
2018-03-04T00:54:18.724Z,13
2018-03-04T00:56:18.686Z,12.6
2018-03-04T00:58:19.409Z,10
2018-03-04T01:00:19.187Z,11.1
2018-03-04T01:02:18.932Z,11.6
2018-03-04T01:04:18.666Z,12.9
2018-03-04T01:06:19.142Z,10.5
2018-03-04T01:08:18.868Z,11.3
2018-03-04T01:10:19.006Z,11.3
2018-03-04T01:12:18.743Z,11.7
2018-03-04T01:14:18.479Z,10.4
2018-03-04T01:16:18.941Z,11.9
2018-03-04T01:18:18.728Z,12.3
2018-03-04T01:20:18.479Z,12.3
2018-03-04T01:22:19.219Z,9.9
2018-03-04T01:24:18.953Z,13.1
2018-03-04T01:26:19.397Z,13.9
2018-03-04T01:28:19.115Z,10.4
2018-03-04T01:30:18.870Z,11
2018-03-04T01:32:18.601Z,12.6
2018-03-04T01:34:19.323Z,12.4
2018-03-04T01:36:18.775Z,14.5
2018-03-04T01:38:18.510Z,11.2
2018-03-04T01:40:18.655Z,11.9
2018-03-04T01:42:19.389Z,10.8
2018-03-04T01:44:19.123Z,12.4
2018-03-04T01:46:18.588Z,10.9
2018-03-04T01:48:19.318Z,13
2018-03-04T01:50:19.081Z,10.5
2018-03-04T01:52:18.800Z,11.7
2018-03-04T01:54:18.521Z,11
2018-03-04T01:56:18.963Z,14.2
2018-03-04T01:58:18.695Z,14.4
2018-03-04T02:00:18.454Z,12.4
2018-03-04T02:02:19.196Z,12.4
2018-03-04T02:04:18.927Z,10.9
2018-03-04T02:06:19.372Z,10.9
2018-03-04T02:08:19.098Z,11
2018-03-04T02:10:19.340Z,11.2
2018-03-04T02:12:19.198Z,11.7
2018-03-04T02:14:19.066Z,14.2
2018-03-04T02:16:18.737Z,11.9
2018-03-04T02:18:18.625Z,11
2018-03-04T02:20:19.502Z,12.9
2018-03-04T02:22:19.356Z,11
2018-03-04T02:24:19.214Z,12.3
2018-03-04T02:26:18.857Z,11
2018-03-04T02:28:18.743Z,11.7
2018-03-04T02:30:18.592Z,9.7
2018-03-04T02:32:19.458Z,10.5
2018-03-04T02:34:19.341Z,11
2018-03-04T02:36:18.994Z,13.7
2018-03-04T02:38:18.817Z,9.4
2018-03-04T02:40:19.142Z,10.4
2018-03-04T02:42:18.966Z,10.5
2018-03-04T02:44:18.817Z,9.9
2018-03-04T02:46:18.443Z,11.3
2018-03-04T02:48:19.288Z,15.5
2018-03-04T02:50:19.187Z,10.8
2018-03-04T02:52:19.042Z,11.4
2018-03-04T02:54:18.912Z,12.7
2018-03-04T02:56:18.618Z,12.9
2018-03-04T02:58:19.446Z,11.1
2018-03-04T03:00:19.299Z,13.3
2018-03-04T03:02:19.154Z,13.7
2018-03-04T03:04:19.024Z,11.3
2018-03-04T03:06:18.668Z,12.2
2018-03-04T03:08:18.495Z,12.6
2018-03-04T03:10:18.765Z,14.5
2018-03-04T03:12:18.593Z,8.6
2018-03-04T03:14:19.450Z,10.4
2018-03-04T03:16:19.106Z,11.5
2018-03-04T03:18:18.983Z,12.4
2018-03-04T03:20:18.845Z,11.6
2018-03-04T03:22:18.702Z,11.7
2018-03-04T03:24:18.544Z,13.2
2018-03-04T03:26:19.206Z,10.1
2018-03-04T03:28:19.052Z,12.7
2018-03-04T03:30:18.898Z,9.9
2018-03-04T03:32:18.663Z,10.1
2018-03-04T03:34:19.390Z,12.5
2018-03-04T03:36:18.873Z,10.5
2018-03-04T03:38:18.643Z,10.7
2018-03-04T03:40:18.941Z,12.7
2018-03-04T03:42:18.643Z,12.9
2018-03-04T03:44:19.397Z,11.4
2018-03-04T03:46:18.908Z,10.7
2018-03-04T03:48:18.616Z,12.6
2018-03-04T03:50:19.401Z,13.6
2018-03-04T03:52:19.103Z,11.4
2018-03-04T03:54:18.869Z,11.1
2018-03-04T03:56:19.369Z,12.5
2018-03-04T03:58:19.081Z,14.1
2018-03-04T04:00:18.854Z,11.4
2018-03-04T04:02:18.604Z,12.3
2018-03-04T04:04:19.342Z,10
2018-03-04T04:06:18.850Z,12.1
2018-03-04T04:08:18.601Z,9.5
2018-03-04T04:10:18.874Z,10
2018-03-04T04:12:18.586Z,13.4
2018-03-04T04:14:19.343Z,11.6
2018-03-04T04:16:18.893Z,9.5
2018-03-04T04:18:18.652Z,12.4
2018-03-04T04:20:19.421Z,14.2
2018-03-04T04:22:19.111Z,10.2
2018-03-04T04:24:18.857Z,11.7
2018-03-04T04:26:19.402Z,10.3
2018-03-04T04:28:19.092Z,15.5
2018-03-04T04:30:18.855Z,12.8
2018-03-04T04:32:18.607Z,12.9
2018-03-04T04:34:19.357Z,13.1
2018-03-04T04:36:18.851Z,11.7
2018-03-04T04:38:18.601Z,12
2018-03-04T04:40:18.746Z,11.3
2018-03-04T04:42:18.496Z,13.5
2018-03-04T04:44:19.236Z,11.3
2018-03-04T04:46:18.660Z,10.3
2018-03-04T04:48:19.356Z,12.5
2018-03-04T04:50:19.121Z,12.7
2018-03-04T04:52:18.876Z,12.4
2018-03-04T04:54:18.589Z,14.4
2018-03-04T04:56:19.093Z,12.6
2018-03-04T04:58:18.835Z,11.1
2018-03-04T05:00:18.577Z,13.3
2018-03-04T05:02:19.345Z,14.4
2018-03-04T05:04:19.072Z,14.8
2018-03-04T05:06:18.530Z,11.6
2018-03-04T05:08:19.290Z,14.2
2018-03-04T05:10:18.562Z,12.2
2018-03-04T05:12:19.280Z,11.5
2018-03-04T05:14:19.034Z,8.9
2018-03-04T05:16:18.596Z,12.3
2018-03-04T05:18:19.420Z,12.6
2018-03-04T05:20:19.169Z,12.8
2018-03-04T05:22:18.928Z,12.5
2018-03-04T05:24:18.633Z,14.7
2018-03-04T05:26:19.121Z,14.1
2018-03-04T05:28:18.863Z,11.4
2018-03-04T05:30:18.594Z,11.9
2018-03-04T05:32:19.346Z,11.9
2018-03-04T05:34:19.067Z,11.3
2018-03-04T05:36:18.533Z,11.4
2018-03-04T05:38:19.223Z,11.3
2018-03-04T05:40:19.400Z,13.1
2018-03-04T05:42:19.162Z,13.6
2018-03-04T05:44:18.857Z,12.9
2018-03-04T05:46:19.321Z,10.3
2018-03-04T05:48:19.066Z,12.3
2018-03-04T05:50:18.810Z,12.9
2018-03-04T05:52:18.560Z,15.1
2018-03-04T05:54:19.276Z,13.1
2018-03-04T05:56:18.746Z,10
2018-03-04T05:58:18.518Z,10
2018-03-04T06:00:19.282Z,10.8
2018-03-04T06:02:19.041Z,11.5
2018-03-04T06:04:18.744Z,15.8
2018-03-04T06:06:19.194Z,10.2
2018-03-04T06:08:18.938Z,9.4
2018-03-04T06:10:19.088Z,9.8
2018-03-04T06:12:18.852Z,12.4
2018-03-04T06:14:18.638Z,13.6
2018-03-04T06:16:19.084Z,10.5
2018-03-04T06:18:18.905Z,14.3
2018-03-04T06:20:18.691Z,15.5
2018-03-04T06:22:19.422Z,11.9
2018-03-04T06:24:19.193Z,10.6
2018-03-04T06:26:19.186Z,10.9
2018-03-04T06:28:18.935Z,14.9
2018-03-04T06:30:18.740Z,12.5
2018-03-04T06:32:18.459Z,15.3
2018-03-04T06:34:19.210Z,11.8
2018-03-04T06:36:19.272Z,13.6
2018-03-04T06:38:19.044Z,12.9
2018-03-04T06:40:19.305Z,12.4
2018-03-04T06:42:19.052Z,12.6
2018-03-04T06:44:18.780Z,13
2018-03-04T06:46:19.280Z,11.9
2018-03-04T06:48:19.259Z,13.2
2018-03-04T06:50:19.046Z,12.1
2018-03-04T06:52:18.806Z,15.5
2018-03-04T06:54:18.546Z,12.8
2018-03-04T06:56:19.076Z,12.7
2018-03-04T06:58:18.838Z,13.1
2018-03-04T07:00:18.582Z,11.2
2018-03-04T07:02:19.336Z,10.2
2018-03-04T07:04:19.062Z,15.5
2018-03-04T07:06:18.526Z,12.9
2018-03-04T07:08:19.279Z,12.6
2018-03-04T07:10:18.559Z,14.4
2018-03-04T07:12:19.285Z,13.4
2018-03-04T07:14:19.045Z,12.3
2018-03-04T07:16:18.578Z,15.5
2018-03-04T07:18:19.396Z,16.7
2018-03-04T07:20:19.148Z,15
2018-03-04T07:22:18.897Z,11
2018-03-04T07:24:18.609Z,11.2
2018-03-04T07:26:19.111Z,14.1
2018-03-04T07:28:18.868Z,12.9
2018-03-04T07:30:18.606Z,12.9
2018-03-04T07:32:19.351Z,12.4
2018-03-04T07:34:19.065Z,11.2
2018-03-04T07:36:18.575Z,12.6
2018-03-04T07:38:19.338Z,12.1
2018-03-04T07:40:18.623Z,13.9
2018-03-04T07:42:19.326Z,15.2
2018-03-04T07:44:19.086Z,16.2
2018-03-04T07:46:18.590Z,14.2
2018-03-04T07:48:19.305Z,13.5
2018-03-04T07:50:19.080Z,13.4
2018-03-04T07:52:18.832Z,11.7
2018-03-04T07:54:18.555Z,12.7
2018-03-04T07:56:19.068Z,14.3
2018-03-04T07:58:18.837Z,13.2
2018-03-04T08:00:18.597Z,16.1
2018-03-04T08:02:19.365Z,13.9
2018-03-04T08:04:19.093Z,13
2018-03-04T08:06:18.543Z,10.6
2018-03-04T08:08:19.312Z,14
2018-03-04T08:10:18.616Z,14.1
2018-03-04T08:12:19.338Z,14.4
2018-03-04T08:14:19.107Z,12.5
2018-03-04T08:16:18.658Z,13.1
2018-03-04T08:18:18.498Z,13.5
2018-03-04T08:20:19.347Z,13.6
2018-03-04T08:22:19.065Z,14.6
2018-03-04T08:24:18.831Z,14.2
2018-03-04T08:26:19.379Z,16
2018-03-04T08:28:19.087Z,14.1
2018-03-04T08:30:18.870Z,14.4
2018-03-04T08:32:18.647Z,13.7
2018-03-04T08:34:19.382Z,13.5
2018-03-04T08:36:18.885Z,13.5
2018-03-04T08:38:18.643Z,13.5
2018-03-04T08:40:18.890Z,12.2
2018-03-04T08:42:18.676Z,13.5
2018-03-04T08:44:18.464Z,11.8
2018-03-04T08:46:18.957Z,15.9
2018-03-04T08:48:18.687Z,13
2018-03-04T08:50:19.468Z,13.3
2018-03-04T08:52:19.182Z,17.3
2018-03-04T08:54:18.911Z,14.2
2018-03-04T08:56:19.407Z,13.2
2018-03-04T08:58:19.158Z,12
2018-03-04T09:00:18.933Z,15.7
2018-03-04T09:02:18.726Z,15
2018-03-04T09:04:18.654Z,14
2018-03-04T09:06:19.170Z,14.5
2018-03-04T09:08:18.872Z,16
2018-03-04T09:10:19.061Z,13.7
2018-03-04T09:12:18.828Z,13
2018-03-04T09:14:18.586Z,15.5
2018-03-04T09:16:19.037Z,14.5
2018-03-04T09:18:18.893Z,14.1
2018-03-04T09:20:18.690Z,14.4
2018-03-04T09:22:19.426Z,15.1
2018-03-04T09:24:19.188Z,15.5
2018-03-04T09:26:18.716Z,15.1
2018-03-04T09:28:18.430Z,14.3
2018-03-04T09:30:19.220Z,16.3
2018-03-04T09:32:18.984Z,14
2018-03-04T09:34:18.705Z,15
2018-03-04T09:36:18.509Z,14.3
2018-03-04T09:38:19.223Z,15.5
2018-03-04T09:40:18.452Z,17.2
2018-03-04T09:42:19.205Z,14.3
2018-03-04T09:44:18.966Z,14.1
2018-03-04T09:46:19.415Z,13
2018-03-04T09:48:19.191Z,15.9
2018-03-04T09:50:19.002Z,16
2018-03-04T09:52:18.724Z,15.1
2018-03-04T09:54:18.496Z,14.7
2018-03-04T09:56:18.972Z,14.6
2018-03-04T09:58:18.709Z,16.1
2018-03-04T10:00:19.494Z,15.7
2018-03-04T10:02:19.208Z,16.8
2018-03-04T10:04:18.980Z,15.5
2018-03-04T10:06:18.992Z,17.9
2018-03-04T10:08:18.752Z,18.1
2018-03-04T10:10:19.001Z,15.2
2018-03-04T10:12:18.716Z,16.2
2018-03-04T10:14:19.484Z,16.1
2018-03-04T10:16:18.995Z,14.7
2018-03-04T10:18:18.821Z,17.6
2018-03-04T10:20:18.551Z,16.5
2018-03-04T10:22:19.321Z,14.8
2018-03-04T10:24:19.091Z,18.2
2018-03-04T10:26:18.652Z,15.9
2018-03-04T10:28:19.393Z,17.1
2018-03-04T10:30:19.189Z,16.1
2018-03-04T10:32:18.957Z,17.9
2018-03-04T10:34:18.733Z,18.3
2018-03-04T10:36:19.222Z,21
2018-03-04T10:38:19.009Z,16.3
2018-03-04T10:40:19.299Z,15.5
2018-03-04T10:42:19.064Z,18.3
2018-03-04T10:44:18.812Z,17.8
2018-03-04T10:46:19.298Z,17.9
2018-03-04T10:48:19.074Z,17.4
2018-03-04T10:50:18.842Z,16.3
2018-03-04T10:52:18.623Z,17
2018-03-04T10:54:19.355Z,15
2018-03-04T10:56:18.833Z,17.8
2018-03-04T10:58:18.609Z,18.1
2018-03-04T11:00:19.360Z,17.7
2018-03-04T11:02:19.121Z,18.8
2018-03-04T11:04:18.880Z,16.9
2018-03-04T11:06:19.401Z,17.6
2018-03-04T11:08:19.153Z,19.7
2018-03-04T11:10:19.448Z,19.7
2018-03-04T11:12:19.238Z,17
2018-03-04T11:14:19.021Z,17.9
2018-03-04T11:16:18.558Z,15.7
2018-03-04T11:18:19.396Z,17.5
2018-03-04T11:20:19.180Z,16.2
2018-03-04T11:22:18.945Z,18.4
2018-03-04T11:24:18.667Z,18.1
2018-03-04T11:26:19.152Z,19.4
2018-03-04T11:28:18.923Z,16
2018-03-04T11:30:18.667Z,17.4
2018-03-04T11:32:19.445Z,19.9
2018-03-04T11:34:19.234Z,19.3
2018-03-04T11:36:18.802Z,18.8
2018-03-04T11:38:18.520Z,18.1
2018-03-04T11:40:18.783Z,20
2018-03-04T11:42:18.541Z,19.5
2018-03-04T11:44:19.252Z,18.5
2018-03-04T11:46:18.698Z,18.3
2018-03-04T11:48:19.462Z,16.7
2018-03-04T11:50:19.234Z,17.2
2018-03-04T11:52:19.014Z,19.5
2018-03-04T11:54:18.786Z,18.5
2018-03-04T11:56:19.350Z,19.5
2018-03-04T11:58:19.099Z,19.8
2018-03-04T12:00:18.907Z,19.1
2018-03-04T12:02:18.679Z,19.1
2018-03-04T12:04:19.430Z,18.9
2018-03-04T12:06:18.920Z,18.7
2018-03-04T12:08:18.697Z,20
2018-03-04T12:10:18.996Z,20.5
2018-03-04T12:12:18.738Z,20.6
2018-03-04T12:14:18.485Z,19.5
2018-03-04T12:16:19.005Z,20.4
2018-03-04T12:18:18.857Z,21.6
2018-03-04T12:20:18.666Z,18.8
2018-03-04T12:22:19.412Z,17.1
2018-03-04T12:24:19.191Z,19.9
2018-03-04T12:26:19.214Z,18.5
2018-03-04T12:28:19.020Z,19.5
2018-03-04T12:30:18.831Z,20.1
2018-03-04T12:32:18.616Z,20.7
2018-03-04T12:34:19.398Z,19.6
2018-03-04T12:36:18.916Z,19.4
2018-03-04T12:38:18.709Z,17.7
2018-03-04T12:40:19.012Z,19.1
2018-03-04T12:42:18.787Z,20.5
2018-03-04T12:44:18.541Z,21.7
2018-03-04T12:46:18.598Z,18.9
2018-03-04T12:48:19.331Z,18.3
2018-03-04T12:50:19.159Z,20.3
2018-03-04T12:52:18.950Z,19.9
2018-03-04T12:54:18.733Z,21.1
2018-03-04T12:56:19.351Z,19.3
2018-03-04T12:58:18.847Z,21
2018-03-04T13:00:18.941Z,20.2
2018-03-04T13:02:18.729Z,20.3
2018-03-04T13:04:18.519Z,18.1
2018-03-04T13:06:19.057Z,21.8
2018-03-04T13:08:18.822Z,21.2
2018-03-04T13:10:19.068Z,19.4
2018-03-04T13:12:18.845Z,19.7
2018-03-04T13:14:18.632Z,20.9
2018-03-04T13:16:19.108Z,18.5
2018-03-04T13:18:18.964Z,18.4
2018-03-04T13:20:18.831Z,21.4
2018-03-04T13:22:18.657Z,21.1
2018-03-04T13:24:19.412Z,23.6
2018-03-04T13:26:19.015Z,19.8
2018-03-04T13:28:18.762Z,19.9
2018-03-04T13:30:18.584Z,19.5
2018-03-04T13:32:19.377Z,22.1
2018-03-04T13:34:19.137Z,22.2
2018-03-04T13:36:18.643Z,21
2018-03-04T13:38:19.442Z,21.2
2018-03-04T13:40:18.737Z,22.4
2018-03-04T13:42:18.518Z,22.3
2018-03-04T13:44:19.255Z,21.7
2018-03-04T13:46:18.729Z,22.3
2018-03-04T13:48:18.545Z,19.4
2018-03-04T13:50:19.295Z,22
2018-03-04T13:52:19.057Z,21.5
2018-03-04T13:54:18.838Z,20.2
2018-03-04T13:56:19.449Z,22.2
2018-03-04T13:58:19.201Z,20.4
2018-03-04T14:00:18.980Z,22.7
2018-03-04T14:02:18.781Z,19.7
2018-03-04T14:04:18.560Z,20.8
2018-03-04T14:06:19.140Z,21.9
2018-03-04T14:08:18.883Z,22.1
2018-03-04T14:10:19.090Z,21
2018-03-04T14:12:18.880Z,21.7
2018-03-04T14:14:18.677Z,20.6
2018-03-04T14:16:19.171Z,21.5
2018-03-04T14:18:19.027Z,20.8
2018-03-04T14:20:18.818Z,20.7
2018-03-04T14:22:18.612Z,21.5
2018-03-04T14:24:19.361Z,20.2
2018-03-04T14:26:18.832Z,21.5
2018-03-04T14:28:18.621Z,22.5
2018-03-04T14:30:19.389Z,24.8
2018-03-04T14:32:19.167Z,21.1
2018-03-04T14:34:18.970Z,22.5
2018-03-04T14:36:18.514Z,21.7
2018-03-04T14:38:19.261Z,20.3
2018-03-04T14:40:18.621Z,22.8
2018-03-04T14:42:19.374Z,19.6
2018-03-04T14:44:19.171Z,21
2018-03-04T14:46:18.694Z,20.3
2018-03-04T14:48:19.458Z,21.1
2018-03-04T14:50:19.239Z,21.3
2018-03-04T14:52:19.028Z,22
2018-03-04T14:54:18.824Z,20.3
2018-03-04T14:56:19.378Z,22.2
2018-03-04T14:58:19.115Z,20.8
2018-03-04T15:00:18.917Z,22
2018-03-04T15:02:18.705Z,23.6
2018-03-04T15:04:19.453Z,22
2018-03-04T15:06:18.945Z,22.5
2018-03-04T15:08:18.747Z,22.3
2018-03-04T15:10:19.069Z,21.1
2018-03-04T15:12:18.861Z,20.8
2018-03-04T15:14:18.655Z,21.8
2018-03-04T15:16:19.135Z,21.3
2018-03-04T15:18:18.984Z,22.1
2018-03-04T15:20:18.797Z,20.5
2018-03-04T15:22:18.587Z,22.8
2018-03-04T15:24:19.349Z,21.8
2018-03-04T15:26:18.846Z,22.5
2018-03-04T15:28:18.635Z,23.1
2018-03-04T15:30:19.411Z,22.3
2018-03-04T15:32:19.182Z,21.7
2018-03-04T15:34:18.975Z,20.4
2018-03-04T15:36:18.542Z,21.3
2018-03-04T15:38:19.282Z,21.3
2018-03-04T15:40:18.616Z,20.2
2018-03-04T15:42:19.379Z,20
2018-03-04T15:44:19.169Z,22.3
2018-03-04T15:46:18.685Z,20.7
2018-03-04T15:48:19.475Z,20.6
2018-03-04T15:50:19.250Z,22.2
2018-03-04T15:52:19.039Z,21.7
2018-03-04T15:54:18.830Z,22.7
2018-03-04T15:56:18.876Z,20.9
2018-03-04T15:58:18.662Z,19.3
2018-03-04T16:00:19.495Z,21.2
2018-03-04T16:02:19.252Z,21.8
2018-03-04T16:04:19.043Z,20.7
2018-03-04T16:06:18.573Z,21.6
2018-03-04T16:08:19.358Z,20.1
2018-03-04T16:10:18.665Z,20.9
2018-03-04T16:12:19.460Z,21.1
2018-03-04T16:14:19.229Z,20.2
2018-03-04T16:16:18.714Z,21.9
2018-03-04T16:18:18.560Z,21
2018-03-04T16:20:19.304Z,21.7
2018-03-04T16:22:19.084Z,23.4
2018-03-04T16:24:18.867Z,21.2
2018-03-04T16:26:19.415Z,21.9
2018-03-04T16:28:19.177Z,19.7
2018-03-04T16:30:18.956Z,19
2018-03-04T16:32:18.741Z,20.4
2018-03-04T16:34:18.457Z,18.2
2018-03-04T16:36:18.930Z,21.8
2018-03-04T16:38:18.729Z,19.4
2018-03-04T16:40:19.036Z,22
2018-03-04T16:42:18.819Z,21.6
2018-03-04T16:44:18.616Z,21.5
2018-03-04T16:46:18.692Z,21.4
2018-03-04T16:48:18.525Z,21.4
2018-03-04T16:50:19.351Z,20.9
2018-03-04T16:52:19.138Z,20.8
2018-03-04T16:54:19.116Z,21.9
2018-03-04T16:56:18.667Z,20.6
2018-03-04T16:58:19.425Z,21.9
2018-03-04T17:00:19.254Z,21.2
2018-03-04T17:02:19.161Z,21.1
2018-03-04T17:04:18.947Z,20.4
2018-03-04T17:06:18.575Z,21.1
2018-03-04T17:08:19.355Z,21.1
2018-03-04T17:10:18.658Z,21.9
2018-03-04T17:12:19.420Z,21.4
2018-03-04T17:14:19.195Z,18.7
2018-03-04T17:16:18.693Z,20.1
2018-03-04T17:18:18.539Z,20.1
2018-03-04T17:20:19.283Z,20.9
2018-03-04T17:22:19.049Z,20.9
2018-03-04T17:24:18.836Z,20.7
2018-03-04T17:26:19.407Z,20.1
2018-03-04T17:28:19.161Z,21.4
2018-03-04T17:30:18.944Z,19.2
2018-03-04T17:32:18.716Z,20.1
2018-03-04T17:34:19.459Z,20
2018-03-04T17:36:18.950Z,20
2018-03-04T17:38:18.733Z,20.2
2018-03-04T17:40:19.027Z,20.3
2018-03-04T17:42:18.744Z,22
2018-03-04T17:44:18.486Z,19.8
2018-03-04T17:46:19.045Z,20.4
2018-03-04T17:48:18.825Z,20.6
2018-03-04T17:50:18.641Z,18.4
2018-03-04T17:52:19.405Z,20
2018-03-04T17:54:19.178Z,17.3
2018-03-04T17:56:18.727Z,18.7
2018-03-04T17:58:18.438Z,16.5
2018-03-04T18:00:19.252Z,16.7
2018-03-04T18:02:19.040Z,17.9
2018-03-04T18:04:18.831Z,18.1
2018-03-04T18:06:19.356Z,18.7
2018-03-04T18:08:19.138Z,16.7
2018-03-04T18:10:19.387Z,17.9
2018-03-04T18:12:19.166Z,18
2018-03-04T18:14:18.945Z,17
2018-03-04T18:16:19.427Z,17.2
2018-03-04T18:18:19.262Z,16.1
2018-03-04T18:20:19.070Z,16.3
2018-03-04T18:22:18.910Z,17.7
2018-03-04T18:24:18.684Z,19.6
2018-03-04T18:26:19.168Z,16.1
2018-03-04T18:28:18.946Z,17.2
2018-03-04T18:30:18.693Z,17.1
2018-03-04T18:32:19.470Z,16.2
2018-03-04T18:34:19.249Z,16.8
2018-03-04T18:36:18.836Z,17.2
2018-03-04T18:38:18.624Z,16
2018-03-04T18:40:18.932Z,15.4
2018-03-04T18:42:18.672Z,15.3
2018-03-04T18:44:19.462Z,16.5
2018-03-04T18:46:19.023Z,16.4
2018-03-04T18:48:18.802Z,17.4
2018-03-04T18:50:18.553Z,15.9
2018-03-04T18:52:19.326Z,18.2
2018-03-04T18:54:19.133Z,17
2018-03-04T18:56:19.182Z,16.2
2018-03-04T18:58:18.976Z,15.8
2018-03-04T19:00:18.715Z,14.8
2018-03-04T19:02:18.467Z,15.6
2018-03-04T19:04:19.255Z,17.8
2018-03-04T19:06:18.816Z,14.7
2018-03-04T19:08:18.590Z,14.5
2018-03-04T19:10:18.762Z,14.8
2018-03-04T19:12:18.529Z,17.4
2018-03-04T19:14:19.265Z,15.3
2018-03-04T19:16:18.855Z,16.6
2018-03-04T19:18:18.657Z,17
2018-03-04T19:20:19.466Z,16.3
2018-03-04T19:22:19.259Z,16
2018-03-04T19:24:19.032Z,17.7
2018-03-04T19:26:18.476Z,18.1
2018-03-04T19:28:19.250Z,17
2018-03-04T19:30:19.009Z,17.1
2018-03-04T19:32:18.780Z,17.5
2018-03-04T19:34:18.563Z,17.2
2018-03-04T19:36:19.120Z,17.4
2018-03-04T19:38:18.856Z,17.1
2018-03-04T19:40:19.050Z,18.3
2018-03-04T19:42:18.826Z,18.1
2018-03-04T19:44:18.596Z,18.1
2018-03-04T19:46:19.049Z,15.1
2018-03-04T19:48:18.822Z,17.2
2018-03-04T19:50:18.550Z,17.4
2018-03-04T19:52:19.324Z,19.2
2018-03-04T19:54:19.116Z,17.3
2018-03-04T19:56:18.674Z,17.5
2018-03-04T19:58:19.426Z,15.2
2018-03-04T20:00:19.238Z,17.7
2018-03-04T20:02:19.036Z,17.8
2018-03-04T20:04:18.887Z,18.6
2018-03-04T20:06:19.436Z,17.9
2018-03-04T20:08:19.189Z,18.1
2018-03-04T20:10:19.462Z,17.1
2018-03-04T20:12:19.238Z,17.2
2018-03-04T20:14:19.018Z,17.2
2018-03-04T20:16:18.578Z,18.2
2018-03-04T20:18:19.397Z,20
2018-03-04T20:20:19.165Z,18.6
2018-03-04T20:22:18.940Z,18.4
2018-03-04T20:24:18.716Z,19.7
2018-03-04T20:26:19.176Z,19.4
2018-03-04T20:28:18.991Z,18.4
2018-03-04T20:30:18.792Z,17.9
2018-03-04T20:32:18.533Z,18.1
2018-03-04T20:34:19.263Z,19
2018-03-04T20:36:18.824Z,19
2018-03-04T20:38:18.604Z,18.2
2018-03-04T20:40:18.766Z,17.6
2018-03-04T20:42:18.530Z,18.6
2018-03-04T20:44:19.253Z,18.7
2018-03-04T20:46:18.857Z,17.4
2018-03-04T20:48:18.612Z,20.6
2018-03-04T20:50:19.481Z,19.1
2018-03-04T20:52:19.347Z,17.6
2018-03-04T20:54:19.125Z,19.4
2018-03-04T20:56:18.660Z,19.5
2018-03-04T20:58:19.401Z,18.9
2018-03-04T21:00:19.197Z,18.9
2018-03-04T21:02:18.973Z,19.5
2018-03-04T21:04:18.728Z,17
2018-03-04T21:06:19.217Z,19.6
2018-03-04T21:08:19.008Z,17.2
2018-03-04T21:10:19.295Z,20.4
2018-03-04T21:12:19.071Z,17.3
2018-03-04T21:14:18.829Z,17.6
2018-03-04T21:16:19.335Z,18.5
2018-03-04T21:18:19.195Z,17.3
2018-03-04T21:20:18.995Z,18.2
2018-03-04T21:22:18.714Z,19.5
2018-03-04T21:24:19.481Z,19.2
2018-03-04T21:26:19.040Z,19.8
2018-03-04T21:28:18.759Z,20
2018-03-04T21:30:18.541Z,18.4
2018-03-04T21:32:19.307Z,20.7
2018-03-04T21:34:19.051Z,18.1
2018-03-04T21:36:18.594Z,18.2
2018-03-04T21:38:18.489Z,17
2018-03-04T21:40:18.715Z,18.4
2018-03-04T21:42:19.445Z,18.7
2018-03-04T21:44:19.191Z,20.1
2018-03-04T21:46:18.732Z,18.7
2018-03-04T21:48:18.503Z,20.1
2018-03-04T21:50:19.250Z,20.9
2018-03-04T21:52:19.019Z,17.8
2018-03-04T21:54:18.788Z,19.5
2018-03-04T21:56:19.329Z,19.5
2018-03-04T21:58:19.117Z,17.4
2018-03-04T22:00:18.903Z,19.8
2018-03-04T22:02:18.673Z,16.8
2018-03-04T22:04:19.418Z,18.3
2018-03-04T22:06:18.901Z,17.5
2018-03-04T22:08:18.658Z,18.8
2018-03-04T22:10:18.855Z,19.8
2018-03-04T22:12:18.586Z,16.7
2018-03-04T22:14:19.360Z,20.2
2018-03-04T22:16:18.931Z,18.5
2018-03-04T22:18:18.769Z,17.5
2018-03-04T22:20:18.512Z,17.5
2018-03-04T22:22:19.277Z,16.6
2018-03-04T22:24:19.034Z,18.8
2018-03-04T22:26:18.472Z,19.2
2018-03-04T22:28:19.190Z,17.8
2018-03-04T22:30:18.947Z,18.3
2018-03-04T22:32:18.720Z,19.3
2018-03-04T22:34:19.452Z,18
2018-03-04T22:36:18.920Z,19.9
2018-03-04T22:38:18.694Z,17.5
2018-03-04T22:40:18.997Z,17.9
2018-03-04T22:42:18.700Z,18.6
2018-03-04T22:44:19.473Z,17.8
2018-03-04T22:46:19.000Z,17.9
2018-03-04T22:48:18.794Z,18.9
2018-03-04T22:50:18.527Z,17.6
2018-03-04T22:52:19.231Z,19.8
2018-03-04T22:54:18.972Z,18.8
2018-03-04T22:56:18.459Z,16
2018-03-04T22:58:19.184Z,17.6
2018-03-04T23:00:18.969Z,17.7
2018-03-04T23:02:18.739Z,18.4
2018-03-04T23:04:18.435Z,16.2
2018-03-04T23:06:18.914Z,16.3
2018-03-04T23:08:18.674Z,18.2
2018-03-04T23:10:18.968Z,17.3
2018-03-04T23:12:18.692Z,17.4
2018-03-04T23:14:19.461Z,16.6
2018-03-04T23:16:18.991Z,18.5
2018-03-04T23:18:18.829Z,17.8
2018-03-04T23:20:18.639Z,16.8
2018-03-04T23:22:19.395Z,18.9
2018-03-04T23:24:19.173Z,16.3
2018-03-04T23:26:18.716Z,17.1
2018-03-04T23:28:19.444Z,18.6
2018-03-04T23:30:19.250Z,15.2
2018-03-04T23:32:19.020Z,15.9
2018-03-04T23:34:18.749Z,16.7
2018-03-04T23:36:19.234Z,16
2018-03-04T23:38:19.001Z,17.2
2018-03-04T23:40:19.294Z,17.9
2018-03-04T23:42:19.053Z,15.7
2018-03-04T23:44:18.796Z,15
2018-03-04T23:46:19.316Z,16.4
2018-03-04T23:48:19.127Z,15.8
2018-03-04T23:50:18.869Z,16
2018-03-04T23:52:18.634Z,14.9
2018-03-04T23:54:19.348Z,16.4
2018-03-04T23:56:18.802Z,15.4
2018-03-04T23:58:18.580Z,16.6
